Time;durP1;ratioP1;P1;durP2;ratioP2;P2;SDS_P1;SDS_P2;PMS_P1;PMS_P2;Temp;Humidity;BMP_temperature;BMP_pressure;BME280_temperature;BME280_humidity;BME280_pressure;Samples;Min_cycle;Max_cycle;Signal;HPM_P1;HPM_P2
2022/06/15 00:01:23;;;;;;;3.25;1.23;;;15.40;99.90;;;14.78;100.00;97588.31;5007048;28;20042;-68
2022/06/15 00:03:51;;;;;;;2.03;0.88;;;15.40;99.90;;;14.87;100.00;97588.69;5005086;28;20132;-68
2022/06/15 00:06:23;;;;;;;7.53;1.33;;;15.40;99.90;;;14.85;100.00;97581.78;5008868;28;20186;-68
2022/06/15 00:08:54;;;;;;;4.47;1.30;;;15.40;99.90;;;14.90;100.00;97585.91;5003587;28;20084;-68
2022/06/15 00:11:29;;;;;;;5.68;1.10;;;15.40;99.90;;;14.97;100.00;97582.84;5021920;28;20082;-67
2022/06/15 00:14:09;;;;;;;2.08;0.90;;;15.40;99.90;;;15.01;100.00;97579.09;5011827;28;20108;-67
2022/06/15 00:16:37;;;;;;;5.05;1.08;;;15.50;99.90;;;15.09;100.00;97575.19;5008907;28;20124;-68
2022/06/15 00:19:04;;;;;;;1.77;0.93;;;15.50;99.90;;;15.21;100.00;97575.28;5005321;28;20049;-69
2022/06/15 00:21:32;;;;;;;2.83;1.00;;;15.60;99.90;;;15.33;100.00;97568.44;5008256;28;20123;-70
2022/06/15 00:23:59;;;;;;;5.18;0.90;;;15.70;99.90;;;15.32;100.00;97569.38;5008586;28;20069;-68
2022/06/15 00:26:26;;;;;;;2.35;0.70;;;15.70;99.90;;;15.32;100.00;97568.53;5008065;28;20060;-67
2022/06/15 00:28:54;;;;;;;3.20;1.00;;;15.80;99.90;;;15.25;100.00;97573.31;5037092;28;20153;-68
2022/06/15 00:31:21;;;;;;;4.18;1.10;;;15.70;99.90;;;15.27;100.00;97574.06;5010832;28;20141;-68
2022/06/15 00:33:49;;;;;;;4.90;0.90;;;15.80;99.90;;;15.21;100.00;97575.28;5005657;28;20164;-68
2022/06/15 00:36:19;;;;;;;5.65;0.85;;;15.70;99.90;;;15.04;100.00;97576.28;5005686;28;20141;-69
2022/06/15 00:38:50;;;;;;;2.70;1.05;;;15.70;99.90;;;15.08;100.00;97568.28;5007245;28;20103;-69
2022/06/15 00:41:24;;;;;;;2.45;0.90;;;15.60;99.90;;;15.05;100.00;97564.06;5006116;28;20121;-69
2022/06/15 00:43:56;;;;;;;2.47;0.95;;;15.60;99.90;;;15.00;100.00;97556.50;5003883;28;20049;-68
2022/06/15 00:46:31;;;;;;;4.15;0.93;;;15.60;99.90;;;14.89;100.00;97550.25;5004250;28;20049;-68
2022/06/15 00:49:28;;;;;;;5.97;1.02;;;15.50;99.90;;;14.90;100.00;97558.00;5005171;28;20050;-70
2022/06/15 00:52:17;;;;;;;3.92;1.00;;;15.50;99.90;;;14.81;100.00;97554.16;5006051;28;20595;-71
2022/06/15 00:54:48;;;;;;;2.67;0.80;;;15.40;99.90;;;14.83;100.00;97551.47;5006175;28;20448;-68
2022/06/15 00:57:15;;;;;;;2.63;1.00;;;15.40;99.90;;;14.75;100.00;97548.47;5036141;28;20073;-69
2022/06/15 00:59:53;;;;;;;1.83;0.88;;;15.40;99.90;;;14.78;100.00;97548.28;5008804;28;20163;-67
2022/06/15 01:02:21;;;;;;;3.78;1.25;;;;;;;14.68;100.00;97548.00;5007459;28;20447;-70
2022/06/15 01:05:25;;;;;;;4.18;1.02;;;15.20;99.90;;;14.40;100.00;97536.53;5005574;28;20144;-67
2022/06/15 01:08:13;;;;;;;1.95;0.70;;;15.10;97.30;;;14.39;100.00;97534.00;5001898;28;20521;-69
2022/06/15 01:11:37;;;;;;;2.47;1.02;;;14.90;95.50;;;14.23;100.00;97532.31;5005767;28;20046;-69
2022/06/15 01:14:31;;;;;;;5.35;1.70;;;14.70;95.90;;;14.26;100.00;97530.44;5022426;28;20118;-68
2022/06/15 01:17:32;;;;;;;6.30;1.42;;;14.60;95.30;;;14.27;100.00;97530.34;5025670;28;20141;-68
2022/06/15 01:20:24;;;;;;;4.90;1.30;;;14.60;95.50;;;14.28;100.00;97532.03;5002119;28;20038;-68
2022/06/15 01:23:17;;;;;;;2.00;0.83;;;14.60;95.30;;;14.33;100.00;97535.22;5007856;28;20148;-69
2022/06/15 01:26:31;;;;;;;2.17;1.02;;;14.60;94.90;;;14.27;100.00;97527.72;5008360;28;20050;-68
2022/06/15 01:29:38;;;;;;;3.53;1.00;;;14.70;95.30;;;14.13;100.00;97528.53;5006788;28;20141;-69
2022/06/15 01:32:27;;;;;;;4.47;1.10;;;14.60;95.80;;;14.13;100.00;97525.94;4999237;28;20049;-70
2022/06/15 01:35:45;;;;;;;5.20;1.00;;;14.50;95.60;;;14.02;100.00;97526.53;5000940;28;20563;-68
2022/06/15 01:38:51;;;;;;;2.28;1.10;;;14.40;96.20;;;13.92;100.00;97530.59;5008682;28;20499;-67
2022/06/15 01:41:54;;;;;;;2.95;0.85;;;14.40;96.30;;;13.89;100.00;97525.56;5006154;28;20077;-68
2022/06/15 01:44:38;;;;;;;3.60;1.10;;;14.30;96.60;;;13.88;100.00;97529.09;4974225;28;20062;-69
2022/06/15 01:47:17;;;;;;;2.35;1.00;;;14.30;96.90;;;13.80;100.00;97532.16;5001402;28;20133;-69
2022/06/15 01:49:51;;;;;;;3.25;1.15;;;14.20;97.10;;;13.70;100.00;97528.34;4999526;28;20046;-67
2022/06/15 01:52:24;;;;;;;3.20;1.10;;;14.20;97.30;;;13.66;100.00;97528.63;4995797;28;20801;-68
2022/06/15 01:55:21;;;;;;;4.28;1.10;;;14.20;98.80;;;13.61;100.00;97521.06;4997620;28;20049;-67
2022/06/15 01:57:50;;;;;;;1.75;0.98;;;;;;;13.45;100.00;97526.28;5011167;28;20049;-67
2022/06/15 02:00:19;;;;;;;4.15;1.20;;;14.10;99.90;;;13.27;100.00;97535.91;5007482;28;20140;-67
2022/06/15 02:03:01;;;;;;;6.72;1.23;;;14.00;99.20;;;13.13;100.00;97541.84;5004784;28;20132;-70
2022/06/15 02:05:53;;;;;;;9.52;1.05;;;13.70;99.80;;;13.13;100.00;97536.66;5002621;28;20130;-68
2022/06/15 02:09:03;;;;;;;3.92;1.15;;;13.60;99.90;;;13.21;100.00;97527.59;5005593;28;20544;-68
2022/06/15 02:11:36;;;;;;;3.63;0.90;;;13.60;99.40;;;13.23;100.00;97528.34;5008079;28;20388;-66
2022/06/15 02:14:22;;;;;;;3.55;1.08;;;13.70;99.20;;;13.29;100.00;97531.47;5005161;28;20073;-68
2022/06/15 02:17:06;;;;;;;4.55;1.20;;;13.70;99.70;;;13.09;100.00;97531.69;5007970;28;20499;-69
2022/06/15 02:19:44;;;;;;;4.93;0.80;;;13.60;99.90;;;13.12;100.00;97537.59;5037002;28;20617;-68
2022/06/15 02:22:21;;;;;;;4.90;1.10;;;13.60;99.60;;;13.14;100.00;97532.28;5004650;28;20078;-66
2022/06/15 02:24:53;;;;;;;5.97;1.20;;;13.60;99.90;;;13.22;100.00;97531.88;5007165;28;20149;-68
2022/06/15 02:27:22;;;;;;;4.45;1.20;;;13.60;99.60;;;13.15;100.00;97526.16;5007747;28;20141;-68
2022/06/15 02:29:57;;;;;;;4.57;0.98;;;13.60;99.90;;;12.97;100.00;97534.00;5006971;28;20119;-69
2022/06/15 02:32:24;;;;;;;4.63;0.98;;;13.50;99.90;;;13.07;100.00;97533.53;5006716;28;20521;-68
2022/06/15 02:34:51;;;;;;;5.43;1.30;;;13.50;99.90;;;13.13;100.00;97535.81;5003053;28;20137;-68
2022/06/15 02:37:18;;;;;;;6.18;1.38;;;13.50;99.90;;;13.15;100.00;97536.56;5007580;28;20074;-69
2022/06/15 02:39:45;;;;;;;4.03;1.17;;;13.50;99.90;;;13.19;100.00;97523.28;5008527;28;20053;-71
2022/06/15 02:42:42;;;;;;;3.72;1.00;;;13.50;99.70;;;13.21;100.00;97525.81;5006651;28;20065;-69
2022/06/15 02:45:29;;;;;;;4.00;0.88;;;13.60;99.60;;;13.07;100.00;97529.19;5000104;28;20622;-68
2022/06/15 02:47:57;;;;;;;2.17;0.93;;;13.50;99.80;;;12.92;100.00;97537.78;5005162;28;20124;-68
2022/06/15 02:50:31;;;;;;;6.68;1.08;;;13.50;99.90;;;12.91;100.00;97531.75;5004855;28;20056;-68
2022/06/15 02:53:06;;;;;;;8.45;1.75;;;13.40;99.90;;;12.80;100.00;97536.69;5000743;28;20084;-67
2022/06/15 02:55:35;;;;;;;4.93;0.98;;;13.40;99.90;;;12.71;100.00;97532.78;5008991;28;20053;-68
2022/06/15 02:58:09;;;;;;;2.33;0.88;;;13.40;99.90;;;12.72;100.00;97531.84;5000703;28;20060;-68
2022/06/15 03:00:38;;;;;;;3.95;0.88;;;13.40;99.90;;;12.79;100.00;97537.59;5005404;28;20236;-68
2022/06/15 03:03:06;;;;;;;5.13;1.10;;;13.30;99.90;;;12.71;100.00;97537.16;5006099;28;20515;-68
2022/06/15 03:05:33;;;;;;;2.80;1.00;;;13.30;99.90;;;12.66;100.00;97536.56;5004298;28;20149;-70
2022/06/15 03:08:00;;;;;;;4.47;1.10;;;13.30;99.90;;;12.65;100.00;97542.69;5006628;28;20160;-68
2022/06/15 03:10:27;;;;;;;2.88;1.02;;;13.30;99.90;;;12.66;100.00;97542.59;5008158;28;20634;-67
2022/06/15 03:12:54;;;;;;;5.15;1.38;;;13.30;99.90;;;12.69;100.00;97541.59;5005125;28;20654;-68
2022/06/15 03:15:21;;;;;;;3.65;0.95;;;13.30;99.90;;;12.71;100.00;97535.41;5006976;28;20081;-70
2022/06/15 03:17:52;;;;;;;4.57;1.00;;;13.30;99.90;;;12.73;100.00;97536.16;5007733;28;20054;-67
2022/06/15 03:20:19;;;;;;;5.72;0.90;;;13.30;99.90;;;12.65;100.00;97530.50;5009642;28;20060;-67
2022/06/15 03:22:48;;;;;;;3.28;0.75;;;13.30;99.90;;;12.56;100.00;97534.41;5011958;28;20616;-68
2022/06/15 03:25:15;;;;;;;2.90;1.05;;;13.30;99.90;;;12.48;100.00;97539.19;5009523;28;20362;-67
2022/06/15 03:27:42;;;;;;;1.60;0.80;;;13.20;99.90;;;12.52;100.00;97532.03;5009501;28;20222;-70
2022/06/15 03:30:11;;;;;;;2.67;0.80;;;;;;;12.52;100.00;97539.84;5006476;28;20546;-67
2022/06/15 03:32:38;;;;;;;2.85;0.80;;;13.10;99.90;;;12.38;100.00;97530.13;5008485;28;20717;-67
2022/06/15 03:35:06;;;;;;;2.97;0.90;;;;;;;12.45;100.00;97533.28;5006414;28;20054;-68
2022/06/15 03:37:33;;;;;;;2.10;0.80;;;13.10;99.90;;;12.18;100.00;97527.69;5012119;28;20202;-69
2022/06/15 03:40:00;;;;;;;4.63;1.10;;;13.10;99.90;;;12.27;100.00;97528.09;5007838;28;20041;-70
2022/06/15 03:42:27;;;;;;;2.35;0.80;;;12.80;99.90;;;12.35;100.00;97532.91;5010332;28;20046;-67
2022/06/15 03:44:54;;;;;;;3.33;0.75;;;12.80;99.90;;;12.41;100.00;97529.16;5011258;28;20570;-68
2022/06/15 03:47:22;;;;;;;8.38;2.53;;;12.90;99.90;;;12.54;100.00;97527.59;5009413;28;20620;-67
2022/06/15 03:49:52;;;;;;;4.72;0.88;;;12.90;99.90;;;12.52;100.00;97526.84;5008118;28;20135;-68
2022/06/15 03:52:26;;;;;;;3.25;0.90;;;13.00;99.90;;;12.42;100.00;97533.44;5006443;28;20060;-68
2022/06/15 03:54:53;;;;;;;4.70;0.80;;;13.00;99.90;;;12.44;100.00;97532.44;5010560;28;20076;-68
2022/06/15 03:57:21;;;;;;;2.10;0.80;;;13.00;99.90;;;12.45;100.00;97534.13;5012413;28;20631;-70
2022/06/15 03:59:48;;;;;;;6.93;1.00;;;13.00;99.90;;;12.43;100.00;97538.56;5005814;28;20137;-69
2022/06/15 04:02:15;;;;;;;2.45;0.98;;;13.00;99.90;;;12.52;100.00;97534.63;5004191;28;20515;-67
2022/06/15 04:04:42;;;;;;;2.10;1.02;;;13.00;99.90;;;12.48;100.00;97539.19;5008430;28;20049;-68
2022/06/15 04:09:56;;;;;;;5.10;0.90;;;13.00;99.90;;;12.37;100.00;97540.66;5007349;28;20137;-69
2022/06/15 04:12:23;;;;;;;3.90;1.17;;;13.00;99.90;;;12.49;100.00;97534.81;5008993;28;20108;-69
2022/06/15 04:14:50;;;;;;;3.80;1.00;;;13.00;99.90;;;12.56;100.00;97539.63;5015700;28;20041;-69
2022/06/15 04:17:18;;;;;;;1.92;0.90;;;13.10;99.90;;;12.62;100.00;97542.84;5010482;28;20077;-68
2022/06/15 04:20:31;;;;;;;3.40;0.98;;;13.20;99.90;;;12.73;100.00;97540.53;5005965;28;20050;-70
2022/06/15 04:22:32;;;;;;;3.13;1.10;;;13.30;99.90;;;12.85;100.00;97542.47;5008436;28;20547;-68
2022/06/15 04:24:59;;;;;;;2.45;0.77;;;13.40;99.90;;;12.99;100.00;97549.56;5007096;28;20045;-69
2022/06/15 04:27:26;;;;;;;3.80;0.90;;;13.50;99.90;;;13.06;100.00;97545.72;5013293;28;20457;-69
2022/06/15 04:29:53;;;;;;;3.63;0.80;;;13.60;99.90;;;13.07;100.00;97547.41;5006464;28;20527;-69
2022/06/15 04:32:20;;;;;;;3.22;1.00;;;13.60;99.90;;;13.10;100.00;97551.63;5007098;28;20150;-68
2022/06/15 04:34:47;;;;;;;4.93;0.82;;;13.70;99.90;;;13.21;100.00;97549.28;5005873;28;20050;-70
2022/06/15 04:37:14;;;;;;;2.65;1.00;;;13.70;99.90;;;13.30;100.00;97554.03;5006496;28;20525;-68
2022/06/15 04:39:42;;;;;;;4.03;0.90;;;13.80;99.90;;;13.38;100.00;97546.63;5007635;28;20085;-68
2022/06/15 04:42:09;;;;;;;4.80;1.02;;;14.00;99.90;;;13.36;100.00;97543.28;5005475;28;20077;-68
2022/06/15 04:44:36;;;;;;;1.90;0.73;;;14.00;99.90;;;13.43;100.00;97548.97;5004883;28;20426;-68
2022/06/15 04:47:03;;;;;;;4.75;1.13;;;14.10;99.90;;;13.52;100.00;97547.63;5009672;28;20137;-69
2022/06/15 04:49:31;;;;;;;4.20;1.10;;;14.20;99.90;;;13.59;100.00;97551.59;5003411;28;20143;-68
2022/06/15 04:51:59;;;;;;;6.05;0.98;;;14.20;99.90;;;13.68;100.00;97553.69;5005009;28;20376;-69
2022/06/15 04:54:26;;;;;;;3.80;0.90;;;14.40;99.90;;;13.68;100.00;97548.47;5007241;28;20100;-68
2022/06/15 04:56:53;;;;;;;3.38;0.80;;;14.40;99.90;;;13.93;100.00;97552.31;5008685;28;20129;-67
2022/06/15 04:59:20;;;;;;;4.45;0.90;;;14.60;99.90;;;14.10;100.00;97552.22;5006386;28;20152;-66
2022/06/15 05:01:48;;;;;;;3.08;1.10;;;14.70;99.90;;;14.27;100.00;97555.63;5006476;28;20096;-67
2022/06/15 05:04:15;;;;;;;1.98;0.80;;;14.90;99.90;;;14.15;100.00;97562.38;5007702;28;20057;-68
2022/06/15 05:06:42;;;;;;;3.13;0.93;;;14.90;99.90;;;14.33;100.00;97552.66;5007117;28;20065;-68
2022/06/15 05:09:14;;;;;;;4.15;0.90;;;15.00;99.90;;;14.41;100.00;97553.91;5009738;28;20125;-67
2022/06/15 05:11:41;;;;;;;3.42;0.90;;;15.10;99.90;;;14.53;100.00;97554.09;5006317;28;20235;-67
2022/06/15 05:14:09;;;;;;;5.93;1.10;;;15.20;99.90;;;14.67;100.00;97558.56;5008043;28;20156;-68
2022/06/15 05:16:37;;;;;;;3.97;1.10;;;15.40;99.90;;;14.91;100.00;97564.91;5005684;28;20407;-67
2022/06/15 05:19:04;;;;;;;2.00;0.82;;;15.60;99.90;;;15.11;100.00;97555.84;5008045;28;20054;-67
2022/06/15 05:21:31;;;;;;;4.20;1.00;;;15.80;99.90;;;15.32;100.00;97565.91;5008904;28;20053;-66
2022/06/15 05:23:58;;;;;;;2.22;0.90;;;16.00;99.90;;;15.48;100.00;97564.03;5008940;28;20144;-67
2022/06/15 05:26:25;;;;;;;1.73;0.80;;;16.20;99.90;;;15.61;100.00;97567.56;5009159;28;20652;-67
2022/06/15 05:28:53;;;;;;;6.32;1.00;;;16.30;99.90;;;15.73;100.00;97563.34;5005205;28;20152;-68
2022/06/15 05:31:22;;;;;;;3.83;1.13;;;16.50;99.90;;;15.87;100.00;97567.69;5009087;28;20081;-68
2022/06/15 05:33:56;;;;;;;3.45;0.80;;;16.60;99.90;;;16.03;100.00;97567.56;4999827;28;20057;-68
2022/06/15 05:36:27;;;;;;;3.10;0.77;;;16.80;99.90;;;16.21;100.00;97565.50;5004208;28;20175;-68
2022/06/15 05:38:55;;;;;;;3.13;0.87;;;17.00;99.90;;;16.29;100.00;97560.63;5008541;28;20165;-68
2022/06/15 05:41:22;;;;;;;5.90;1.10;;;17.10;99.90;;;16.41;100.00;97562.41;5007896;28;20058;-67
2022/06/15 05:46:30;;;;;;;4.93;0.90;;;17.50;99.80;;;16.75;100.00;97562.78;5005440;28;20058;-68
2022/06/15 05:49:00;;;;;;;4.73;0.93;;;17.60;99.70;;;16.83;100.00;97559.66;5011108;28;20048;-69
2022/06/15 05:51:28;;;;;;;3.70;0.90;;;17.80;98.80;;;16.96;100.00;97557.88;5009893;28;20136;-68
2022/06/15 05:53:55;;;;;;;5.57;0.90;;;17.90;99.90;;;17.10;100.00;97551.69;5007697;28;20052;-69
2022/06/15 05:56:23;;;;;;;3.33;0.98;;;18.10;99.90;;;17.06;100.00;97551.06;5008820;28;20125;-68
2022/06/15 05:58:51;;;;;;;3.05;0.90;;;18.10;98.70;;;17.35;100.00;97550.81;5009315;28;20045;-68
2022/06/15 06:01:24;;;;;;;2.67;0.80;;;18.30;98.60;;;17.45;100.00;97553.63;5010161;28;20132;-68
2022/06/15 06:03:51;;;;;;;4.25;1.15;;;18.40;98.40;;;17.66;100.00;97549.47;5010209;28;20133;-69
2022/06/15 06:06:19;;;;;;;2.30;0.95;;;18.60;98.30;;;17.88;100.00;97550.56;5008885;28;20049;-67
2022/06/15 06:08:46;;;;;;;2.72;1.00;;;18.70;98.20;;;17.91;100.00;97553.81;5008678;28;20136;-67
2022/06/15 06:11:13;;;;;;;2.53;0.90;;;18.80;97.60;;;17.96;100.00;97548.22;5008737;28;20582;-68
2022/06/15 06:13:40;;;;;;;2.35;0.95;;;19.00;97.40;;;18.01;100.00;97540.84;5005537;28;20077;-68
2022/06/15 06:16:08;;;;;;;6.53;1.20;;;19.10;97.10;;;17.95;100.00;97543.94;5011976;28;20056;-68
2022/06/15 06:18:35;;;;;;;3.17;0.80;;;19.20;97.10;;;18.15;100.00;97545.06;5010546;28;20429;-67
2022/06/15 06:21:05;;;;;;;1.60;0.65;;;19.20;96.60;;;18.37;100.00;97550.41;5009029;28;20136;-68
2022/06/15 06:23:33;;;;;;;3.90;1.10;;;19.40;96.70;;;18.56;100.00;97541.97;5015150;28;20082;-68
2022/06/15 06:26:01;;;;;;;5.18;0.90;;;19.50;96.20;;;18.65;100.00;97550.97;5010069;28;20588;-69
2022/06/15 06:28:33;;;;;;;4.75;0.93;;;19.60;96.10;;;18.59;100.00;97546.19;5009021;28;20112;-69
2022/06/15 06:31:03;;;;;;;3.65;0.90;;;19.50;95.20;;;18.69;100.00;97546.31;5009943;28;20050;-68
2022/06/15 06:33:37;;;;;;;3.92;0.90;;;19.60;95.60;;;18.68;100.00;97544.63;5015628;28;20053;-69
2022/06/15 06:36:16;;;;;;;5.07;1.35;;;19.70;95.40;;;18.54;100.00;97556.19;5012530;28;20103;-68
2022/06/15 06:38:44;;;;;;;2.65;0.80;;;19.80;95.50;;;18.92;100.00;97550.69;5010759;28;20084;-68
2022/06/15 06:41:18;;;;;;;3.55;1.00;;;19.90;95.30;;;19.12;100.00;97556.22;5007376;28;20050;-68
2022/06/15 06:43:45;;;;;;;3.65;1.10;;;20.10;95.70;;;18.95;100.00;97560.13;5006698;28;20129;-68
2022/06/15 06:46:12;;;;;;;2.33;1.00;;;20.20;95.20;;;19.18;100.00;97561.84;5007938;28;20061;-70
2022/06/15 06:48:39;;;;;;;3.03;1.00;;;20.20;95.10;;;19.41;100.00;97557.41;5009531;28;20952;-68
2022/06/15 06:51:07;;;;;;;3.67;1.13;;;20.30;95.20;;;19.49;100.00;97561.22;5014626;28;20141;-69
2022/06/15 06:53:35;;;;;;;5.50;1.17;;;20.40;95.00;;;19.29;100.00;97562.78;5008359;28;20061;-69
2022/06/15 06:56:09;;;;;;;2.47;0.88;;;20.50;94.60;;;19.42;100.00;97564.31;5006635;28;20056;-70
2022/06/15 06:58:36;;;;;;;7.22;1.30;;;20.60;94.50;;;19.61;100.00;97568.97;5007292;28;20053;-67
2022/06/15 07:01:03;;;;;;;7.95;1.38;;;20.50;95.10;;;19.59;100.00;97575.31;5009350;28;20181;-68
2022/06/15 07:03:30;;;;;;;3.60;1.00;;;20.60;94.70;;;19.91;100.00;97571.94;5011519;28;20088;-68
2022/06/15 07:06:08;;;;;;;2.38;0.93;;;20.70;95.10;;;20.06;100.00;97571.53;5016251;28;20092;-68
2022/06/15 07:08:38;;;;;;;5.47;1.00;;;20.90;94.80;;;19.83;100.00;97581.28;5011182;28;20137;-69
2022/06/15 07:11:15;;;;;;;6.68;1.50;;;21.00;94.90;;;20.13;100.00;97574.50;5014544;28;20061;-68
2022/06/15 07:13:44;;;;;;;7.45;1.20;;;21.10;94.80;;;20.29;100.00;97574.06;5009378;28;20053;-67
2022/06/15 07:16:18;;;;;;;4.18;1.15;;;21.20;94.40;;;20.46;100.00;97578.81;5016315;28;20053;-68
2022/06/15 07:18:48;;;;;;;5.10;0.90;;;21.50;95.30;;;20.83;100.00;97575.75;5011743;28;20467;-67
2022/06/15 07:21:23;;;;;;;4.82;1.08;;;21.70;94.90;;;20.80;100.00;97569.88;5015611;28;20091;-67
2022/06/15 07:23:52;;;;;;;4.78;1.20;;;21.80;94.40;;;20.66;100.00;97573.69;5014522;28;20077;-68
2022/06/15 07:26:25;;;;;;;4.25;1.20;;;21.80;94.20;;;21.17;100.00;97580.81;5013410;28;20050;-68
2022/06/15 07:28:53;;;;;;;3.75;1.10;;;22.00;94.40;;;21.10;100.00;97575.22;5009224;28;20129;-68
2022/06/15 07:31:43;;;;;;;3.90;0.82;;;22.10;93.70;;;21.32;100.00;97581.28;5007670;28;20677;-68
2022/06/15 07:34:11;;;;;;;3.22;0.80;;;22.20;93.80;;;21.43;100.00;97583.03;5012877;28;20168;-68
2022/06/15 07:36:46;;;;;;;4.07;1.40;;;22.30;93.90;;;21.52;100.00;97583.03;5015059;28;20046;-67
2022/06/15 07:39:20;;;;;;;8.18;1.35;;;22.40;93.60;;;21.63;100.00;97583.94;5010595;28;20132;-68
2022/06/15 07:41:48;;;;;;;7.05;1.13;;;22.50;93.70;;;21.70;100.00;97580.59;5013969;28;20188;-67
2022/06/15 07:44:18;;;;;;;4.85;1.08;;;22.70;93.90;;;21.89;100.00;97594.81;5011754;28;20451;-68
2022/06/15 07:46:45;;;;;;;4.38;1.23;;;22.80;93.60;;;21.96;100.00;97585.38;5009654;28;20420;-67
2022/06/15 07:52:03;;;;;;;2.55;1.08;;;23.00;93.00;;;22.10;100.00;97582.38;5012726;28;20427;-67
2022/06/15 07:54:30;;;;;;;7.07;1.20;;;23.10;93.20;;;22.32;100.00;97583.09;5009426;28;20085;-68
2022/06/15 07:56:57;;;;;;;2.92;1.50;;;23.10;93.10;;;22.23;100.00;97590.03;5011074;28;20542;-67
2022/06/15 07:59:25;;;;;;;5.90;1.20;;;23.20;93.00;;;22.02;100.00;97590.13;5018558;28;20597;-68
2022/06/15 08:01:53;;;;;;;4.95;1.63;;;23.20;92.40;;;22.10;100.00;97585.00;5014872;28;20140;-68
2022/06/15 08:04:20;;;;;;;4.13;1.20;;;23.20;93.00;;;22.16;100.00;97590.72;5008006;28;20422;-67
2022/06/15 08:06:48;;;;;;;3.20;1.10;;;23.20;92.70;;;22.56;100.00;97590.63;5012429;28;20062;-68
2022/06/15 08:09:16;;;;;;;3.83;1.13;;;23.30;93.10;;;22.48;100.00;97585.19;5010115;28;20065;-68
2022/06/15 08:14:36;;;;;;;7.57;1.50;;;23.50;92.50;;;22.89;100.00;97583.19;5015830;28;20064;-67
2022/06/15 08:17:05;;;;;;;4.15;1.10;;;23.60;92.20;;;23.21;100.00;97585.50;5026884;28;20141;-69
2022/06/15 08:19:42;;;;;;;3.88;1.13;;;23.70;92.60;;;23.14;100.00;97587.88;5014021;28;20494;-69
2022/06/15 08:22:11;;;;;;;8.38;1.08;;;23.80;92.00;;;23.12;100.00;97584.53;5012010;28;20435;-68
2022/06/15 08:24:41;;;;;;;2.30;1.10;;;24.00;92.10;;;23.32;100.00;97585.31;5005421;28;20041;-67
2022/06/15 08:27:14;;;;;;;6.97;1.42;;;24.00;91.70;;;23.28;100.00;97583.94;5011183;28;20133;-67
2022/06/15 08:29:42;;;;;;;4.00;1.50;;;24.00;91.10;;;23.36;100.00;97584.03;5038579;28;20160;-68
2022/06/15 08:32:10;;;;;;;3.50;1.10;;;24.00;91.60;;;23.53;100.00;97582.44;5012083;28;20148;-67
2022/06/15 08:34:39;;;;;;;3.00;1.25;;;24.20;91.40;;;23.31;100.00;97582.78;5013943;28;20069;-68
2022/06/15 08:37:11;;;;;;;5.10;1.52;;;24.30;91.50;;;23.51;100.00;97579.09;5008236;28;20053;-66
2022/06/15 08:39:39;;;;;;;5.20;1.13;;;24.40;90.90;;;23.91;100.00;97583.25;5011274;28;20111;-67
2022/06/15 08:42:59;;;;;;;3.72;1.20;;;24.60;90.90;;;24.20;100.00;97575.09;5009732;28;20124;-67
2022/06/15 08:45:42;;;;;;;4.40;1.00;;;24.90;90.50;;;24.29;100.00;97580.47;5003073;28;20104;-67
2022/06/15 08:48:33;;;;;;;8.40;1.67;;;25.00;90.30;;;24.31;100.00;97573.19;5043994;28;20523;-68
2022/06/15 08:51:19;;;;;;;6.43;1.60;;;25.10;89.70;;;24.31;100.00;97573.19;5010898;28;20156;-67
2022/06/15 08:54:00;;;;;;;4.35;1.42;;;25.30;90.20;;;24.46;100.00;97582.28;5004574;28;20312;-68
2022/06/15 08:56:43;;;;;;;4.60;1.30;;;25.40;90.20;;;24.76;100.00;97583.72;5012026;28;20148;-69
2022/06/15 08:59:36;;;;;;;4.38;1.13;;;25.50;89.50;;;24.90;100.00;97571.69;5007333;28;20046;-67
2022/06/15 09:02:12;;;;;;;4.25;1.17;;;25.80;89.50;;;25.30;100.00;97575.63;5011479;28;20145;-67
2022/06/15 09:05:14;;;;;;;5.00;1.15;;;26.10;89.70;;;25.91;100.00;97575.53;5010085;28;20128;-67
2022/06/15 09:08:20;;;;;;;5.45;1.48;;;26.40;88.90;;;25.85;100.00;97569.84;5010973;28;20042;-69
2022/06/15 09:11:08;;;;;;;2.63;1.05;;;26.50;86.60;;;25.80;100.00;97566.84;5007780;28;20500;-67
2022/06/15 09:13:55;;;;;;;3.28;1.25;;;26.80;86.30;;;26.45;100.00;97562.66;5002928;28;20081;-68
2022/06/15 09:16:39;;;;;;;6.65;1.33;;;27.10;86.90;;;26.24;98.82;97569.31;5011206;28;20084;-70
2022/06/15 09:19:28;;;;;;;4.68;1.30;;;27.20;84.50;;;26.98;97.95;97569.34;5008072;28;20067;-70
2022/06/15 09:22:06;;;;;;;4.22;1.20;;;27.50;84.20;;;26.94;96.06;97561.81;5004201;28;20139;-71
2022/06/15 09:24:47;;;;;;;4.75;1.20;;;27.60;83.20;;;27.30;92.73;97580.91;5002811;28;20065;-68
2022/06/15 09:27:33;;;;;;;6.07;1.20;;;27.80;81.70;;;27.47;92.05;97576.38;5016176;28;20054;-69
2022/06/15 09:30:20;;;;;;;3.80;1.30;;;27.90;81.70;;;27.31;92.95;97572.75;5004236;28;20066;-68
2022/06/15 09:33:02;;;;;;;3.88;1.10;;;28.10;81.40;;;28.56;86.93;97571.97;5003198;28;20129;-68
2022/06/15 09:35:32;;;;;;;4.07;1.17;;;28.30;80.50;;;28.44;89.90;97574.22;5008771;28;20081;-68
2022/06/15 09:38:01;;;;;;;4.95;1.10;;;28.50;80.50;;;28.05;89.73;97574.28;5013368;28;20072;-69
2022/06/15 09:40:43;;;;;;;3.42;1.13;;;28.60;80.20;;;30.39;83.68;97564.19;5002034;28;20129;-68
2022/06/15 09:43:43;;;;;;;3.42;1.00;;;28.60;81.50;;;29.10;81.14;97561.16;5007960;28;20081;-67
2022/06/15 09:46:29;;;;;;;3.55;1.20;;;28.90;79.30;;;30.57;79.77;97568.28;5003827;28;20129;-67
2022/06/15 09:49:23;;;;;;;4.68;1.20;;;29.20;85.60;;;30.84;78.30;97570.19;5009351;28;20045;-67
2022/06/15 09:52:30;;;;;;;3.50;1.00;;;29.60;86.80;;;30.91;72.42;97572.91;5002398;28;20093;-67
2022/06/15 09:55:25;;;;;;;3.80;1.13;;;30.00;77.80;;;31.39;71.86;97569.50;5004823;28;20561;-69
2022/06/15 09:57:54;;;;;;;2.47;1.00;;;30.30;77.10;;;31.46;75.08;97568.53;5007926;28;20132;-68
2022/06/15 10:00:21;;;;;;;3.10;1.02;;;30.60;77.50;;;31.72;74.86;97571.53;5005073;28;20421;-68
2022/06/15 10:03:02;;;;;;;3.38;1.02;;;30.90;77.50;;;32.16;68.55;97570.25;5031607;28;20042;-69
2022/06/15 10:05:36;;;;;;;3.47;1.38;;;31.00;77.80;;;32.64;67.41;97560.25;5008054;28;20438;-68
2022/06/15 10:08:10;;;;;;;2.78;1.10;;;31.00;76.00;;;32.59;67.47;97561.88;5007787;28;20674;-68
2022/06/15 10:10:50;;;;;;;4.53;1.23;;;31.20;76.20;;;32.31;64.58;97557.50;5004404;28;20091;-68
2022/06/15 10:13:20;;;;;;;3.15;1.20;;;31.20;75.00;;;30.94;68.06;97552.94;4997391;28;20154;-68
2022/06/15 10:15:56;;;;;;;7.05;1.30;;;30.80;74.30;;;31.99;66.37;97562.56;5001896;28;20046;-68
2022/06/15 10:18:26;;;;;;;2.90;1.00;;;30.90;75.00;;;32.65;66.53;97559.19;5007807;28;20096;-68
2022/06/15 10:21:14;;;;;;;6.38;1.08;;;31.20;75.30;;;32.84;62.89;97557.53;5002148;28;20084;-69
2022/06/15 10:23:57;;;;;;;8.18;1.23;;;31.50;95.80;;;32.26;63.26;97566.16;5002662;28;20554;-68
2022/06/15 10:26:43;;;;;;;3.95;1.10;;;31.40;87.50;;;31.87;65.32;97561.50;5001413;28;20048;-70
2022/06/15 10:29:18;;;;;;;4.00;1.27;;;31.50;72.80;;;31.67;64.19;97566.78;5002979;28;20132;-67
2022/06/15 10:32:09;;;;;;;6.57;1.33;;;31.60;73.40;;;31.85;63.42;97564.38;5004035;28;20045;-67
2022/06/15 10:34:47;;;;;;;4.35;1.33;;;;;;;32.76;61.52;97552.38;4996434;28;20589;-67
2022/06/15 10:37:28;;;;;;;4.40;1.30;;;;;;;32.92;59.85;97546.56;5001734;28;20212;-68
2022/06/15 10:40:17;;;;;;;3.08;1.00;;;;;;;32.96;60.55;97552.38;5007455;28;20104;-68
2022/06/15 10:42:51;;;;;;;2.42;0.90;;;;;;;34.22;59.57;97542.25;5002701;28;20164;-68
2022/06/15 10:45:26;;;;;;;2.85;1.20;;;;;;;34.53;57.97;97549.47;5003054;28;20101;-67
2022/06/15 10:47:56;;;;;;;4.55;1.20;;;;;;;33.37;59.90;97553.97;5006512;28;20454;-68
2022/06/15 10:50:43;;;;;;;4.22;1.10;;;;;;;32.98;55.79;97544.06;5001094;28;20081;-67
2022/06/15 10:53:46;;;;;;;5.05;1.20;;;;;;;32.92;58.52;97553.81;4989894;28;20069;-67
2022/06/15 11:02:40;;;;;;;5.93;1.40;;;;;;;32.41;57.04;97546.34;5006334;28;20132;-68
2022/06/15 11:05:18;;;;;;;3.70;1.13;;;;;;;33.03;57.28;97539.75;5005405;28;20515;-67
2022/06/15 11:08:01;;;;;;;3.70;1.00;;;;;;;33.50;55.02;97542.31;5006516;28;20132;-67